Time;durP1;ratioP1;P1;durP2;ratioP2;P2;SDS_P1;SDS_P2;PMS_P1;PMS_P2;Temp;Humidity;BMP_temperature;BMP_pressure;BME280_temperature;BME280_humidity;BME280_pressure;Samples;Min_cycle;Max_cycle;Signal;HPM_P1;HPM_P2
2021/08/12 00:00:50;;;;;;;24.17;10.30;;;;;;;;;;5026871;28;20128;-63
2021/08/12 00:03:17;;;;;;;18.90;10.30;;;;;;;;;;5023383;28;20095;-63
2021/08/12 00:05:44;;;;;;;19.92;10.57;;;;;;;;;;5025533;28;20133;-63
2021/08/12 00:08:10;;;;;;;24.25;11.02;;;;;;;;;;5019836;28;20537;-63
2021/08/12 00:10:37;;;;;;;25.17;10.00;;;;;;;;;;5025576;28;20077;-63
2021/08/12 00:13:03;;;;;;;20.50;10.60;;;;;;;;;;5026044;28;20084;-63
2021/08/12 00:15:30;;;;;;;23.13;10.75;;;;;;;;;;5025723;28;20103;-63
2021/08/12 00:17:56;;;;;;;23.05;11.45;;;;;;;;;;5025433;28;20069;-63
2021/08/12 00:20:23;;;;;;;19.63;10.15;;;;;;;;;;5024461;28;20132;-63
2021/08/12 00:22:49;;;;;;;25.17;10.57;;;;;;;;;;5025119;28;20076;-63
2021/08/12 00:25:17;;;;;;;27.05;11.43;;;;;;;;;;5022794;28;20057;-63
2021/08/12 00:27:45;;;;;;;19.70;10.57;;;;;;;;;;5021389;28;20075;-63
2021/08/12 00:30:13;;;;;;;30.40;11.02;;;;;;;;;;5023228;28;20049;-63
2021/08/12 00:32:40;;;;;;;20.25;11.27;;;;;;;;;;5025008;28;20077;-63
2021/08/12 00:35:07;;;;;;;21.13;9.57;;;;;;;;;;5023552;28;20128;-63
2021/08/12 00:37:33;;;;;;;23.23;9.68;;;;;;;;;;5026716;28;20073;-63
2021/08/12 00:40:00;;;;;;;20.98;10.05;;;;;;;;;;5022429;28;20132;-63
2021/08/12 00:42:27;;;;;;;22.27;9.93;;;;;;;;;;5023282;28;20137;-63
2021/08/12 00:44:53;;;;;;;25.35;10.77;;;;;;;;;;5021739;28;20085;-63
2021/08/12 00:47:20;;;;;;;17.92;10.13;;;;;;;;;;5023307;28;20128;-63
2021/08/12 00:49:46;;;;;;;26.27;10.52;;;;;;;;;;5025054;28;20133;-63
2021/08/12 00:52:13;;;;;;;23.67;11.02;;;;;;;;;;5024665;28;20125;-63
2021/08/12 00:54:40;;;;;;;22.75;11.43;;;;;;;;;;5022439;28;20476;-63
2021/08/12 00:57:08;;;;;;;21.10;11.40;;;;;;;;;;5023456;28;20439;-63
2021/08/12 00:59:36;;;;;;;28.60;11.77;;;;;;;;;;5020310;28;20084;-63
2021/08/12 01:02:12;;;;;;;29.00;12.13;;;;;;;;;;5022714;28;20115;-63
2021/08/12 01:04:39;;;;;;;27.08;12.07;;;;;;;;;;5025102;28;20054;-63
2021/08/12 01:07:10;;;;;;;27.00;11.50;;;;;;;;;;5021392;28;20089;-63
2021/08/12 01:09:48;;;;;;;17.02;11.30;;;;;;;;;;5023152;28;20095;-63
2021/08/12 01:12:15;;;;;;;;;;;;;;;;;;5023605;28;20080;-63
2021/08/12 01:14:47;;;;;;;27.40;11.80;;;;;;;;;;5027931;28;19925;-63
2021/08/12 01:17:17;;;;;;;34.72;12.07;;;;;;;;;;5024221;28;20444;-63
2021/08/12 01:19:46;;;;;;;19.58;11.77;;;;;;;;;;5023717;28;20077;-63
2021/08/12 01:22:17;;;;;;;30.10;11.70;;;;;;;;;;5030584;28;20049;-63
2021/08/12 01:24:45;;;;;;;22.70;11.40;;;;;;;;;;5030662;28;20136;-63
2021/08/12 01:27:13;;;;;;;26.40;12.13;;;;;;;;;;5028987;28;20077;-63
2021/08/12 01:29:47;;;;;;;25.85;12.07;;;;;;;;;;5022756;28;20129;-63
2021/08/12 01:32:17;;;;;;;26.58;12.80;;;;;;;;;;5029558;28;20473;-63
2021/08/12 01:35:03;;;;;;;18.23;12.40;;;;;;;;;;5042169;28;20081;-63
2021/08/12 01:37:34;;;;;;;22.05;12.45;;;;;;;;;;5027598;28;20655;-63
2021/08/12 01:40:02;;;;;;;25.33;11.98;;;;;;;;;;5029435;28;20171;-63
2021/08/12 01:42:30;;;;;;;25.15;12.23;;;;;;;;;;5029110;28;20132;-63
2021/08/12 01:44:58;;;;;;;23.63;11.25;;;;;;;;;;5027004;28;20050;-63
2021/08/12 01:47:24;;;;;;;24.25;12.10;;;;;;;;;;5023840;28;20141;-63
2021/08/12 01:49:52;;;;;;;25.87;12.63;;;;;;;;;;5025609;28;20134;-63
2021/08/12 01:52:20;;;;;;;25.55;12.90;;;;;;;;;;5027610;28;20045;-63
2021/08/12 01:54:46;;;;;;;;;;;;;;;;;;5030198;28;20129;-63
2021/08/12 01:57:13;;;;;;;26.77;12.95;;;;;;;;;;5023647;28;19964;-63
2021/08/12 01:59:41;;;;;;;31.05;11.82;;;;;;;;;;5026020;28;20127;-63
2021/08/12 02:02:09;;;;;;;22.33;12.23;;;;;;;;;;5027995;28;20065;-63
2021/08/12 02:04:36;;;;;;;29.63;12.60;;;;;;;;;;5028066;28;20144;-63
2021/08/12 02:07:05;;;;;;;27.77;12.10;;;;;;;;;;5027596;28;20072;-63
2021/08/12 02:09:32;;;;;;;26.05;12.65;;;;;;;;;;5025651;28;20132;-63
2021/08/12 02:11:58;;;;;;;25.50;12.90;;;;;;;;;;5027564;28;20069;-63
2021/08/12 02:14:25;;;;;;;30.10;13.17;;;;;;;;;;5023588;28;20053;-63
2021/08/12 02:16:51;;;;;;;25.27;12.68;;;;;;;;;;5026785;28;20045;-63
2021/08/12 02:19:18;;;;;;;23.75;12.93;;;;;;;;;;5026410;28;20149;-63
2021/08/12 02:21:46;;;;;;;30.02;14.25;;;;;;;;;;5026949;28;20045;-63
2021/08/12 02:24:27;;;;;;;23.25;13.48;;;;;;;;;;5024775;28;20055;-63
2021/08/12 02:26:58;;;;;;;20.00;13.52;;;;;;;;;;5023305;28;20080;-63
2021/08/12 02:29:27;;;;;;;30.52;13.82;;;;;;;;;;5024954;28;20045;-63
2021/08/12 02:31:54;;;;;;;28.45;12.18;;;;;;;;;;5024437;28;20124;-63
2021/08/12 02:34:22;;;;;;;26.20;13.25;;;;;;;;;;5025794;28;20064;-63
2021/08/12 02:36:48;;;;;;;22.48;12.30;;;;;;;;;;5025590;28;20084;-63
2021/08/12 02:39:15;;;;;;;25.35;12.38;;;;;;;;;;5025557;28;20069;-63
2021/08/12 02:41:42;;;;;;;21.52;12.55;;;;;;;;;;5027732;28;20128;-63
2021/08/12 02:44:08;;;;;;;16.97;11.47;;;;;;;;;;5023686;28;20559;-63
2021/08/12 02:46:35;;;;;;;21.55;11.90;;;;;;;;;;5025046;28;20077;-63
2021/08/12 02:49:03;;;;;;;19.00;11.52;;;;;;;;;;5024043;28;20049;-63
2021/08/12 02:51:31;;;;;;;18.95;11.57;;;;;;;;;;5026045;28;20484;-63
2021/08/12 02:53:58;;;;;;;16.02;11.15;;;;;;;;;;5027460;28;20378;-63
2021/08/12 02:56:25;;;;;;;25.23;12.20;;;;;;;;;;5023837;28;20556;-63
2021/08/12 02:58:52;;;;;;;28.13;13.00;;;;;;;;;;5022853;28;20084;-63
2021/08/12 03:01:19;;;;;;;24.80;12.23;;;;;;;;;;5028122;28;20065;-63
2021/08/12 03:03:47;;;;;;;22.38;11.68;;;;;;;;;;5027018;28;20634;-63
2021/08/12 03:06:15;;;;;;;24.77;11.90;;;;;;;;;;5028769;28;20052;-63
2021/08/12 03:08:44;;;;;;;19.42;12.25;;;;;;;;;;5025828;28;20118;-63
2021/08/12 03:11:13;;;;;;;23.15;11.82;;;;;;;;;;5028088;28;20063;-63
2021/08/12 03:13:39;;;;;;;19.27;11.57;;;;;;;;;;5026578;28;20045;-63
2021/08/12 03:16:06;;;;;;;16.80;11.02;;;;;;;;;;5026299;28;20081;-63
2021/08/12 03:18:33;;;;;;;25.97;12.83;;;;;;;;;;5025121;28;20050;-63
2021/08/12 03:21:12;;;;;;;25.63;12.60;;;;;;;;;;5026254;28;20085;-63
2021/08/12 03:23:40;;;;;;;22.80;12.40;;;;;;;;;;5028051;28;20129;-63
2021/08/12 03:26:06;;;;;;;22.95;12.35;;;;;;;;;;5027096;28;20203;-63
2021/08/12 03:28:33;;;;;;;16.50;11.45;;;;;;;;;;5022711;28;20086;-63
2021/08/12 03:31:00;;;;;;;22.02;12.32;;;;;;;;;;5022578;28;20080;-63
2021/08/12 03:33:26;;;;;;;23.45;12.02;;;;;;;;;;5024686;28;20049;-63
2021/08/12 03:35:54;;;;;;;24.10;12.43;;;;;;;;;;5025302;28;20129;-63
2021/08/12 03:38:22;;;;;;;16.40;11.32;;;;;;;;;;5027570;28;20451;-63
2021/08/12 03:40:48;;;;;;;18.90;11.52;;;;;;;;;;5022361;28;20136;-63
2021/08/12 03:43:15;;;;;;;23.08;12.55;;;;;;;;;;5026534;28;20081;-63
2021/08/12 03:45:42;;;;;;;18.20;11.52;;;;;;;;;;5024021;28;20145;-63
2021/08/12 03:48:09;;;;;;;17.15;10.95;;;;;;;;;;5022121;28;20188;-63
2021/08/12 03:50:36;;;;;;;23.38;11.77;;;;;;;;;;5024062;28;20069;-63
2021/08/12 03:53:03;;;;;;;19.60;12.13;;;;;;;;;;5023560;28;20140;-63
2021/08/12 03:55:29;;;;;;;21.80;10.43;;;;;;;;;;5027281;28;20109;-63
2021/08/12 03:57:56;;;;;;;15.77;10.48;;;;;;;;;;5029161;28;20073;-63
2021/08/12 04:00:23;;;;;;;20.52;11.05;;;;;;;;;;5024811;28;20054;-64
2021/08/12 04:02:49;;;;;;;16.23;10.25;;;;;;;;;;5025704;28;20136;-63
2021/08/12 04:05:17;;;;;;;15.48;10.05;;;;;;;;;;5024878;28;20127;-63
2021/08/12 04:07:43;;;;;;;16.50;10.63;;;;;;;;;;5028379;28;20132;-63
2021/08/12 04:10:10;;;;;;;20.15;9.77;;;;;;;;;;5026264;28;20145;-63
2021/08/12 04:12:36;;;;;;;13.45;9.85;;;;;;;;;;5028639;28;20137;-63
2021/08/12 04:15:04;;;;;;;16.75;10.07;;;;;;;;;;5023020;28;20077;-63
2021/08/12 04:17:31;;;;;;;15.13;9.07;;;;;;;;;;5024228;28;20037;-63
2021/08/12 04:19:57;;;;;;;12.77;9.48;;;;;;;;;;5022086;28;20087;-63
2021/08/12 04:22:24;;;;;;;15.82;8.40;;;;;;;;;;5015729;28;20124;-63
2021/08/12 04:24:50;;;;;;;14.32;9.13;;;;;;;;;;5024540;28;20077;-64
2021/08/12 04:27:17;;;;;;;14.50;9.23;;;;;;;;;;5020904;28;20141;-63
2021/08/12 04:29:44;;;;;;;19.63;9.05;;;;;;;;;;5024886;28;20115;-63
2021/08/12 04:32:10;;;;;;;16.55;9.65;;;;;;;;;;5013543;28;20145;-64
2021/08/12 04:34:37;;;;;;;17.83;8.88;;;;;;;;;;5011198;28;20416;-63
2021/08/12 04:37:04;;;;;;;17.00;9.70;;;;;;;;;;5022640;28;20073;-63
2021/08/12 04:39:30;;;;;;;16.02;9.13;;;;;;;;;;5023814;28;20053;-63
2021/08/12 04:41:57;;;;;;;23.60;10.07;;;;;;;;;;5023200;28;20129;-63
2021/08/12 04:44:25;;;;;;;15.43;10.25;;;;;;;;;;5012761;28;20148;-63
2021/08/12 04:46:51;;;;;;;13.90;8.93;;;;;;;;;;5003134;28;20211;-63
2021/08/12 04:49:18;;;;;;;20.20;9.88;;;;;;;;;;5002897;28;20049;-63
2021/08/12 04:51:45;;;;;;;15.67;9.30;;;;;;;;;;5002728;28;20410;-63
2021/08/12 04:54:11;;;;;;;18.47;9.73;;;;;;;;;;4996273;28;20336;-63
2021/08/12 04:56:38;;;;;;;10.95;8.25;;;;;;;;;;4992588;28;20050;-63
2021/08/12 04:59:04;;;;;;;15.02;9.02;;;;;;;;;;4990806;28;20497;-63
2021/08/12 05:01:31;;;;;;;11.02;8.43;;;;;;;;;;4994022;28;20089;-63
2021/08/12 05:03:58;;;;;;;16.53;8.70;;;;;;;;;;4990769;28;20046;-62
2021/08/12 05:06:25;;;;;;;18.27;7.97;;;;;;;;;;4998575;28;20050;-63
2021/08/12 05:08:51;;;;;;;14.00;7.53;;;;;;;;;;4993542;28;20100;-63
2021/08/12 05:11:17;;;;;;;17.98;7.68;;;;;;;;;;4994954;28;20042;-63
2021/08/12 05:13:46;;;;;;;16.67;7.15;;;;;;;;;;4996307;28;20133;-63
2021/08/12 05:16:13;;;;;;;14.95;6.68;;;;;;;;;;4999181;28;20133;-63
2021/08/12 05:18:39;;;;;;;16.00;7.43;;;;;;;;;;5004766;28;20390;-63
2021/08/12 05:21:07;;;;;;;14.85;6.85;;;;;;;;;;4997202;28;20088;-63
2021/08/12 05:23:35;;;;;;;12.73;6.90;;;;;;;;;;4996199;28;20526;-64
2021/08/12 05:26:02;;;;;;;13.55;6.97;;;;;;;;;;4992410;28;20141;-63
2021/08/12 05:28:29;;;;;;;11.55;7.00;;;;;;;;;;5004446;28;20046;-63
2021/08/12 05:30:55;;;;;;;10.35;7.30;;;;;;;;;;5003091;28;20061;-63
2021/08/12 05:33:22;;;;;;;13.98;7.35;;;;;;;;;;5000283;28;20042;-63
2021/08/12 05:35:49;;;;;;;8.93;6.43;;;;;;;;;;5000768;28;20586;-64
2021/08/12 05:38:16;;;;;;;15.50;6.82;;;;;;;;;;5001809;28;20586;-63
2021/08/12 05:40:42;;;;;;;12.93;6.32;;;;;;;;;;5005745;28;20427;-63
2021/08/12 05:43:09;;;;;;;20.30;6.20;;;;;;;;;;5000853;28;20112;-63
2021/08/12 05:45:35;;;;;;;14.77;5.70;;;;;;;;;;5023387;28;20080;-63
2021/08/12 05:48:02;;;;;;;10.13;5.70;;;;;;;;;;5021004;28;20054;-63
2021/08/12 05:50:28;;;;;;;15.10;5.72;;;;;;;;;;5024274;28;20144;-63
2021/08/12 05:52:55;;;;;;;14.32;5.90;;;;;;;;;;5018765;28;20125;-63
2021/08/12 05:55:21;;;;;;;16.70;5.95;;;;;;;;;;5020350;28;20155;-63
2021/08/12 05:57:48;;;;;;;11.82;5.05;;;;;;;;;;5020692;28;20081;-63
2021/08/12 06:00:15;;;;;;;7.90;5.17;;;;;;;;;;5024391;28;20145;-63
2021/08/12 06:02:42;;;;;;;11.88;4.85;;;;;;;;;;5023244;28;20497;-63
2021/08/12 06:05:09;;;;;;;7.72;5.50;;;;;;;;;;5019778;28;20100;-63
2021/08/12 06:07:35;;;;;;;10.55;5.00;;;;;;;;;;5020086;28;20083;-63
2021/08/12 06:10:01;;;;;;;10.55;4.90;;;;;;;;;;5024361;28;20080;-63
2021/08/12 06:12:28;;;;;;;10.00;5.23;;;;;;;;;;5023282;28;20470;-63
2021/08/12 06:14:55;;;;;;;10.20;5.00;;;;;;;;;;5025044;28;20133;-63
2021/08/12 06:17:21;;;;;;;11.52;4.70;;;;;;;;;;5028204;28;20077;-63
2021/08/12 06:19:48;;;;;;;14.95;5.10;;;;;;;;;;5024373;28;20072;-63
2021/08/12 06:22:15;;;;;;;11.60;4.78;;;;;;;;;;5022736;28;20144;-63
2021/08/12 06:24:41;;;;;;;8.38;4.38;;;;;;;;;;5026079;28;20588;-63
2021/08/12 06:27:08;;;;;;;14.05;4.78;;;;;;;;;;5020795;28;20085;-63
2021/08/12 06:29:35;;;;;;;11.00;4.88;;;;;;;;;;5024579;28;20141;-65
2021/08/12 06:32:02;;;;;;;9.48;4.95;;;;;;;;;;5024707;28;20147;-63
2021/08/12 06:34:29;;;;;;;13.07;5.15;;;;;;;;;;5024618;28;20128;-63
2021/08/12 06:36:55;;;;;;;12.70;4.72;;;;;;;;;;5026968;28;20136;-63
2021/08/12 06:39:22;;;;;;;10.98;4.82;;;;;;;;;;5022767;28;20129;-63
2021/08/12 06:41:48;;;;;;;10.32;5.00;;;;;;;;;;5026055;28;20053;-63
2021/08/12 06:44:15;;;;;;;10.60;5.78;;;;;;;;;;5021318;28;20077;-63
2021/08/12 06:46:42;;;;;;;9.30;4.95;;;;;;;;;;5028425;28;20133;-63
2021/08/12 06:49:08;;;;;;;13.88;5.20;;;;;;;;;;5027167;28;20038;-63
2021/08/12 06:51:35;;;;;;;11.23;4.53;;;;;;;;;;5023494;28;20148;-63
2021/08/12 06:54:02;;;;;;;12.98;5.22;;;;;;;;;;5025211;28;20050;-63
2021/08/12 06:56:30;;;;;;;12.13;4.47;;;;;;;;;;5020500;28;20133;-63
2021/08/12 06:58:57;;;;;;;10.63;5.10;;;;;;;;;;5016220;28;20081;-63
2021/08/12 07:01:23;;;;;;;14.18;4.45;;;;;;;;;;5024351;28;20133;-64
2021/08/12 07:03:50;;;;;;;14.15;4.95;;;;;;;;;;5023389;28;20046;-63
2021/08/12 07:06:17;;;;;;;8.88;5.20;;;;;;;;;;5025199;28;20132;-63
2021/08/12 07:08:43;;;;;;;7.93;4.65;;;;;;;;;;5026019;28;20072;-63
2021/08/12 07:11:10;;;;;;;8.70;4.90;;;;;;;;;;5021694;28;20176;-63
2021/08/12 07:13:36;;;;;;;12.20;4.55;;;;;;;;;;5024598;28;20042;-63
2021/08/12 07:16:02;;;;;;;8.38;4.55;;;;;;;;;;5023526;28;20589;-63
2021/08/12 07:18:31;;;;;;;16.60;4.68;;;;;;;;;;5025233;28;20512;-63
2021/08/12 07:20:57;;;;;;;8.50;4.45;;;;;;;;;;5024455;28;20049;-64
2021/08/12 07:23:26;;;;;;;6.97;3.95;;;;;;;;;;5022720;28;20053;-64
2021/08/12 07:25:53;;;;;;;7.30;4.18;;;;;;;;;;5022185;28;20466;-63
2021/08/12 07:28:19;;;;;;;7.80;4.20;;;;;;;;;;5024791;28;20533;-63
2021/08/12 07:30:46;;;;;;;8.23;3.95;;;;;;;;;;5024295;28;20631;-63
2021/08/12 07:33:12;;;;;;;8.95;4.57;;;;;;;;;;5023833;28;20493;-64
2021/08/12 07:35:39;;;;;;;7.43;4.35;;;;;;;;;;5023797;28;20558;-63
2021/08/12 07:38:05;;;;;;;14.80;4.43;;;;;;;;;;5025837;28;20489;-64
2021/08/12 07:40:32;;;;;;;6.55;3.88;;;;;;;;;;5024346;28;20073;-64
2021/08/12 07:42:59;;;;;;;5.75;3.72;;;;;;;;;;5022507;28;20132;-63
2021/08/12 07:45:25;;;;;;;7.20;4.05;;;;;;;;;;5024018;28;20149;-63
2021/08/12 07:47:52;;;;;;;5.45;3.63;;;;;;;;;;5020683;28;20438;-63
2021/08/12 07:50:18;;;;;;;7.35;3.92;;;;;;;;;;5019181;28;20081;-63
2021/08/12 07:52:45;;;;;;;7.55;4.00;;;;;;;;;;5023409;28;20893;-63
2021/08/12 07:55:12;;;;;;;5.95;3.53;;;;;;;;;;5021160;28;20057;-63
2021/08/12 07:57:38;;;;;;;9.18;4.20;;;;;;;;;;5026166;28;20145;-63
2021/08/12 08:00:05;;;;;;;8.25;3.50;;;;;;;;;;5022415;28;20146;-63
2021/08/12 08:02:40;;;;;;;7.07;3.67;;;;;;;;;;5022707;28;20073;-64
2021/08/12 08:05:07;;;;;;;9.35;4.38;;;;;;;;;;5025315;28;20626;-63
2021/08/12 08:07:33;;;;;;;7.75;4.00;;;;;;;;;;5017290;28;20501;-64
2021/08/12 08:10:00;;;;;;;6.72;3.65;;;;;;;;;;5025115;28;20048;-63
2021/08/12 08:12:26;;;;;;;6.45;3.47;;;;;;;;;;5022869;28;20128;-63
2021/08/12 08:14:53;;;;;;;8.53;3.20;;;;;;;;;;5024659;28;20076;-64
2021/08/12 08:17:19;;;;;;;7.65;3.85;;;;;;;;;;5022258;28;20087;-64
2021/08/12 08:19:45;;;;;;;6.10;3.38;;;;;;;;;;5021868;28;20111;-64
2021/08/12 08:22:12;;;;;;;6.95;3.42;;;;;;;;;;5021536;28;20581;-64
2021/08/12 08:24:38;;;;;;;7.97;3.75;;;;;;;;;;5025125;28;20136;-64
2021/08/12 08:27:05;;;;;;;5.55;3.05;;;;;;;;;;5022373;28;20144;-64
2021/08/12 08:29:31;;;;;;;8.17;3.47;;;;;;;;;;5018311;28;20054;-64
2021/08/12 08:31:58;;;;;;;4.13;2.70;;;;;;;;;;5022582;28;20304;-63
2021/08/12 08:34:24;;;;;;;7.45;2.90;;;;;;;;;;5019506;28;20081;-64
2021/08/12 08:36:51;;;;;;;6.95;3.03;;;;;;;;;;5021212;28;20564;-64
2021/08/12 08:39:17;;;;;;;7.18;3.90;;;;;;;;;;5023506;28;20120;-64
2021/08/12 08:41:44;;;;;;;4.53;2.97;;;;;;;;;;5023505;28;20051;-64
2021/08/12 08:44:11;;;;;;;5.00;3.15;;;;;;;;;;5022670;28;20051;-64
2021/08/12 08:46:39;;;;;;;4.45;2.72;;;;;;;;;;5022237;28;20136;-64
2021/08/12 08:49:06;;;;;;;4.47;2.70;;;;;;;;;;5019168;28;20077;-64
2021/08/12 08:51:34;;;;;;;6.03;2.90;;;;;;;;;;5026318;28;20077;-64
2021/08/12 08:54:01;;;;;;;5.63;2.63;;;;;;;;;;5018735;28;20041;-64
2021/08/12 08:56:27;;;;;;;3.58;2.55;;;;;;;;;;5023262;28;20136;-64
2021/08/12 08:58:55;;;;;;;;;;;;;;;;;;5021723;28;20042;-64
2021/08/12 09:01:21;;;;;;;7.40;2.95;;;;;;;;;;5022031;28;19925;-64
2021/08/12 09:03:49;;;;;;;3.35;2.80;;;;;;;;;;5019673;28;20096;-64
2021/08/12 09:06:16;;;;;;;3.55;3.03;;;;;;;;;;5021948;28;20056;-64
2021/08/12 09:08:42;;;;;;;4.30;2.80;;;;;;;;;;5021942;28;20510;-64
2021/08/12 09:11:09;;;;;;;7.97;3.50;;;;;;;;;;5021378;28;20049;-64
2021/08/12 09:13:38;;;;;;;4.13;3.22;;;;;;;;;;5021034;28;20046;-64
2021/08/12 09:16:04;;;;;;;6.35;2.85;;;;;;;;;;5007295;28;20057;-64
2021/08/12 09:18:31;;;;;;;7.73;3.17;;;;;;;;;;5021295;28;20505;-63
2021/08/12 09:21:17;;;;;;;4.00;2.70;;;;;;;;;;5024218;28;20128;-64
2021/08/12 09:23:43;;;;;;;4.38;2.60;;;;;;;;;;5023526;28;20143;-64
2021/08/12 09:26:19;;;;;;;8.23;2.80;;;;;;;;;;5024911;28;20140;-64
2021/08/12 09:28:46;;;;;;;5.63;2.83;;;;;;;;;;5022335;28;20049;-64
2021/08/12 09:31:13;;;;;;;5.30;2.80;;;;;;;;;;5017398;28;20480;-64
2021/08/12 09:33:39;;;;;;;5.00;2.93;;;;;;;;;;5018750;28;20045;-64
2021/08/12 09:36:21;;;;;;;4.63;3.33;;;;;;;;;;5020493;28;20096;-64
2021/08/12 09:39:04;;;;;;;8.27;3.08;;;;;;;;;;5022475;28;20144;-64
2021/08/12 09:41:38;;;;;;;5.00;3.25;;;;;;;;;;5027819;28;20125;-64
2021/08/12 09:44:05;;;;;;;4.72;2.97;;;;;;;;;;5025090;28;20081;-64
2021/08/12 09:46:34;;;;;;;5.28;3.25;;;;;;;;;;5027563;28;20074;-64
2021/08/12 09:49:02;;;;;;;9.23;3.72;;;;;;;;;;5025306;28;20120;-64
2021/08/12 09:51:31;;;;;;;6.38;3.40;;;;;;;;;;5023898;28;20077;-64
2021/08/12 09:54:04;;;;;;;5.22;3.03;;;;;;;;;;5025311;28;20052;-64
2021/08/12 09:56:30;;;;;;;5.10;2.90;;;;;;;;;;5026999;28;20237;-64
2021/08/12 09:59:04;;;;;;;8.52;3.47;;;;;;;;;;5025807;28;20077;-64
2021/08/12 10:01:31;;;;;;;5.25;3.08;;;;;;;;;;5027584;28;20053;-64
2021/08/12 10:03:57;;;;;;;4.85;2.97;;;;;;;;;;5021301;28;20045;-64
2021/08/12 10:06:25;;;;;;;8.98;3.00;;;;;;;;;;5024284;28;20148;-64
2021/08/12 10:08:52;;;;;;;7.60;3.40;;;;;;;;;;5023764;28;20141;-64
2021/08/12 10:11:20;;;;;;;5.13;3.10;;;;;;;;;;5027664;28;20140;-64
2021/08/12 10:13:50;;;;;;;7.78;3.38;;;;;;;;;;5029667;28;20076;-64
2021/08/12 10:16:17;;;;;;;7.90;3.30;;;;;;;;;;5021746;28;20115;-64
2021/08/12 10:18:45;;;;;;;7.15;3.17;;;;;;;;;;5026942;28;20409;-64
2021/08/12 10:21:12;;;;;;;7.18;3.53;;;;;;;;;;5025521;28;20457;-64
2021/08/12 10:23:40;;;;;;;6.35;3.40;;;;;;;;;;5028538;28;20163;-64
2021/08/12 10:26:07;;;;;;;4.18;3.00;;;;;;;;;;5026406;28;20077;-64
2021/08/12 10:28:35;;;;;;;9.38;3.35;;;;;;;;;;5029739;28;20076;-64
2021/08/12 10:31:03;;;;;;;5.93;3.00;;;;;;;;;;5029053;28;20509;-65
2021/08/12 10:33:29;;;;;;;;;;;;;;;;;;5026230;28;20088;-64
2021/08/12 10:35:57;;;;;;;7.90;3.47;;;;;;;;;;5026697;28;19960;-64
2021/08/12 10:38:24;;;;;;;4.90;3.50;;;;;;;;;;5022608;28;20120;-64
2021/08/12 10:40:52;;;;;;;4.33;3.10;;;;;;;;;;5026034;28;20069;-64
2021/08/12 10:43:23;;;;;;;4.30;2.90;;;;;;;;;;5028178;28;20076;-64
2021/08/12 10:45:54;;;;;;;7.50;3.05;;;;;;;;;;5028177;28;20065;-64
2021/08/12 10:48:21;;;;;;;3.85;2.75;;;;;;;;;;5024597;28;20085;-64
2021/08/12 10:51:00;;;;;;;5.10;3.10;;;;;;;;;;5027224;28;20128;-64
2021/08/12 10:53:26;;;;;;;5.68;3.55;;;;;;;;;;5024880;28;20133;-64
2021/08/12 10:55:53;;;;;;;17.38;3.35;;;;;;;;;;5026878;28;20120;-64
2021/08/12 11:00:49;;;;;;;5.57;2.92;;;;;;;;;;5023979;28;20673;-64
2021/08/12 11:03:16;;;;;;;;;;;;;;;;;;5025580;28;20045;-64
2021/08/12 11:06:01;;;;;;;7.80;3.08;;;;;;;;;;5023178;28;20200;-64
2021/08/12 11:08:46;;;;;;;6.22;3.05;;;;;;;;;;5024991;28;20100;-64
2021/08/12 11:11:13;;;;;;;5.10;2.55;;;;;;;;;;5024436;28;20079;-64
2021/08/12 11:13:39;;;;;;;3.85;3.15;;;;;;;;;;5023456;28;20057;-64
2021/08/12 11:16:06;;;;;;;4.85;2.72;;;;;;;;;;5024692;28;20168;-64
2021/08/12 11:18:43;;;;;;;5.30;2.80;;;;;;;;;;5022842;28;20045;-64
2021/08/12 11:21:29;;;;;;;3.90;2.78;;;;;;;;;;5025763;28;20468;-65
2021/08/12 11:24:05;;;;;;;4.82;2.65;;;;;;;;;;5025928;28;20053;-64
2021/08/12 11:26:41;;;;;;;4.00;2.97;;;;;;;;;;5021100;28;20044;-64
2021/08/12 11:29:19;;;;;;;6.22;2.75;;;;;;;;;;5023811;28;20064;-65
2021/08/12 11:31:46;;;;;;;5.07;3.30;;;;;;;;;;5024360;28;20109;-64
2021/08/12 11:34:21;;;;;;;3.78;2.70;;;;;;;;;;5022122;28;20076;-65
2021/08/12 11:37:17;;;;;;;4.53;2.55;;;;;;;;;;5026965;28;20132;-64
2021/08/12 11:39:47;;;;;;;6.05;2.50;;;;;;;;;;5010697;28;20088;-64
2021/08/12 11:42:34;;;;;;;4.95;2.88;;;;;;;;;;5022217;28;20141;-64
2021/08/12 11:45:03;;;;;;;5.97;2.55;;;;;;;;;;5023446;28;20084;-64
2021/08/12 11:47:29;;;;;;;4.60;2.88;;;;;;;;;;5025591;28;20085;-64
2021/08/12 11:49:56;;;;;;;5.57;2.63;;;;;;;;;;5028601;28;20049;-64
2021/08/12 11:52:24;;;;;;;5.95;2.70;;;;;;;;;;5019209;28;20328;-65
2021/08/12 11:55:07;;;;;;;4.45;2.63;;;;;;;;;;5025651;28;20138;-65
2021/08/12 11:57:41;;;;;;;4.03;2.38;;;;;;;;;;5021914;28;20491;-64
2021/08/12 12:00:09;;;;;;;4.47;2.53;;;;;;;;;;5022156;28;20054;-64
2021/08/12 12:02:35;;;;;;;;;;;;;;;;;;5023557;28;20072;-65
2021/08/12 12:05:01;;;;;;;8.45;2.33;;;;;;;;;;5017370;28;19996;-64
2021/08/12 12:07:47;;;;;;;8.30;2.45;;;;;;;;;;5022822;28;20049;-64
2021/08/12 12:10:25;;;;;;;3.92;2.72;;;;;;;;;;5021017;28;20046;-65
2021/08/12 12:12:52;;;;;;;3.70;2.25;;;;;;;;;;5023643;28;20057;-64
2021/08/12 12:15:31;;;;;;;4.65;2.63;;;;;;;;;;5023548;28;20100;-65
2021/08/12 12:17:58;;;;;;;4.93;2.42;;;;;;;;;;5024710;28;20099;-64
2021/08/12 12:20:25;;;;;;;6.35;2.40;;;;;;;;;;5022143;28;20152;-65
2021/08/12 12:22:56;;;;;;;4.40;2.13;;;;;;;;;;5022739;28;20076;-64
2021/08/12 12:25:25;;;;;;;4.60;2.45;;;;;;;;;;5023006;28;20085;-64
2021/08/12 12:27:51;;;;;;;6.07;2.45;;;;;;;;;;5024846;28;20645;-64
2021/08/12 12:30:19;;;;;;;3.63;2.42;;;;;;;;;;5019877;28;20635;-64
2021/08/12 12:32:56;;;;;;;5.32;2.28;;;;;;;;;;5024428;28;20073;-64
2021/08/12 12:35:23;;;;;;;3.95;2.15;;;;;;;;;;5022489;28;20146;-64
2021/08/12 12:37:50;;;;;;;7.47;2.50;;;;;;;;;;5022324;28;20128;-64
2021/08/12 12:40:17;;;;;;;;;;;;;;;;;;5020880;28;20052;-64
2021/08/12 12:42:44;;;;;;;2.83;2.40;;;;;;;;;;5022536;28;20381;-64
2021/08/12 12:45:11;;;;;;;7.00;2.60;;;;;;;;;;5021681;28;20179;-64
2021/08/12 12:47:38;;;;;;;5.07;2.58;;;;;;;;;;5021393;28;20132;-64
2021/08/12 12:50:17;;;;;;;7.68;2.65;;;;;;;;;;5026135;28;20055;-64
2021/08/12 12:53:00;;;;;;;3.60;2.38;;;;;;;;;;5024020;28;20080;-64
2021/08/12 12:55:33;;;;;;;6.93;2.60;;;;;;;;;;5020347;28;20046;-64
2021/08/12 12:58:14;;;;;;;6.40;2.90;;;;;;;;;;5021574;28;20132;-64
2021/08/12 13:00:40;;;;;;;4.63;2.80;;;;;;;;;;5018129;28;20140;-64
2021/08/12 13:03:07;;;;;;;4.10;2.60;;;;;;;;;;5022761;28;20045;-64
2021/08/12 13:05:47;;;;;;;5.57;2.90;;;;;;;;;;5026512;28;20160;-64
2021/08/12 13:08:14;;;;;;;5.85;2.70;;;;;;;;;;5019124;28;20057;-64
2021/08/12 13:10:40;;;;;;;5.75;2.67;;;;;;;;;;5021275;28;20049;-64
2021/08/12 13:13:07;;;;;;;11.40;2.70;;;;;;;;;;5025580;28;20068;-64
2021/08/12 13:15:36;;;;;;;5.47;2.80;;;;;;;;;;5033070;28;20248;-64
2021/08/12 13:18:06;;;;;;;4.65;2.75;;;;;;;;;;5026499;28;20049;-64
2021/08/12 13:20:43;;;;;;;5.32;2.60;;;;;;;;;;5026645;28;20445;-64
2021/08/12 13:23:10;;;;;;;5.53;2.45;;;;;;;;;;5025584;28;20077;-64
2021/08/12 13:25:37;;;;;;;5.57;2.67;;;;;;;;;;5032006;28;20084;-64
2021/08/12 13:28:04;;;;;;;5.97;2.85;;;;;;;;;;5026467;28;20161;-64
2021/08/12 13:30:34;;;;;;;6.97;3.05;;;;;;;;;;5027806;28;20049;-64
2021/08/12 13:33:01;;;;;;;5.75;2.83;;;;;;;;;;5029263;28;20057;-64
2021/08/12 13:35:28;;;;;;;8.80;2.65;;;;;;;;;;5029979;28;20402;-64
2021/08/12 13:37:55;;;;;;;3.47;2.50;;;;;;;;;;5028914;28;20076;-64
2021/08/12 13:40:21;;;;;;;6.55;3.03;;;;;;;;;;5026689;28;20142;-64
2021/08/12 13:42:48;;;;;;;3.50;2.70;;;;;;;;;;5023275;28;20070;-64
2021/08/12 13:45:15;;;;;;;4.40;2.83;;;;;;;;;;5023120;28;20058;-65
2021/08/12 13:47:42;;;;;;;6.60;2.97;;;;;;;;;;5024096;28;20144;-64
2021/08/12 13:50:08;;;;;;;5.80;2.90;;;;;;;;;;5024663;28;20128;-64
2021/08/12 13:52:35;;;;;;;4.28;2.75;;;;;;;;;;5027699;28;20053;-64
2021/08/12 13:55:01;;;;;;;6.15;2.97;;;;;;;;;;5027702;28;20131;-65
2021/08/12 13:57:32;;;;;;;5.43;3.20;;;;;;;;;;5023010;28;20501;-64
2021/08/12 13:59:59;;;;;;;5.82;3.17;;;;;;;;;;5025323;28;20132;-64
2021/08/12 14:02:25;;;;;;;5.03;2.90;;;;;;;;;;5026785;28;20050;-64
2021/08/12 14:04:51;;;;;;;6.75;3.30;;;;;;;;;;5026115;28;20468;-64
2021/08/12 14:07:22;;;;;;;6.80;3.28;;;;;;;;;;5024387;28;20318;-64
2021/08/12 14:09:51;;;;;;;7.15;3.38;;;;;;;;;;5026869;28;20064;-64
2021/08/12 14:12:20;;;;;;;4.32;3.00;;;;;;;;;;5027866;28;20401;-65
2021/08/12 14:14:46;;;;;;;7.47;3.00;;;;;;;;;;5026708;28;20136;-64
2021/08/12 14:17:13;;;;;;;4.43;3.07;;;;;;;;;;5024822;28;20049;-64
2021/08/12 14:19:40;;;;;;;7.97;3.70;;;;;;;;;;5028078;28;20124;-64
2021/08/12 14:22:06;;;;;;;6.87;3.37;;;;;;;;;;5025934;28;20053;-64
2021/08/12 14:24:33;;;;;;;8.63;3.13;;;;;;;;;;5009820;28;20046;-64
2021/08/12 14:27:04;;;;;;;6.07;3.53;;;;;;;;;;5026545;28;20054;-64
2021/08/12 14:29:31;;;;;;;10.60;3.50;;;;;;;;;;5027185;28;20084;-64
2021/08/12 14:31:59;;;;;;;4.50;2.90;;;;;;;;;;5020713;28;20157;-64
2021/08/12 14:34:30;;;;;;;6.68;3.35;;;;;;;;;;5021447;28;20123;-64
2021/08/12 14:36:57;;;;;;;5.20;3.20;;;;;;;;;;5024449;28;20075;-64
2021/08/12 14:39:24;;;;;;;5.18;3.13;;;;;;;;;;5022638;28;20065;-65
2021/08/12 14:41:51;;;;;;;5.70;3.20;;;;;;;;;;5025568;28;20132;-64
2021/08/12 14:44:18;;;;;;;4.68;2.78;;;;;;;;;;5022366;28;20157;-64